x

Buoy M01 - Jordan Basin (44037) Wave Buoy

6:04am - Sat 22nd Jul 2017 All times are EDT. -4 hours from GMT.

  • Sig Wave height 2.0ft
  • Peak Period 6s
  • Wind
    4mph, 7mph gusts
  • Sea Temp 64°f
  • Air Temp 65°f
  • Sea Pressure 1007.8mb
  • Buoy M01 - Jordan Basin
  • Buoy M01 - Jordan Basin

More Historic Weather Station data

Upgrade to MSW Pro to gain access to the past 30 days of data for over 8000 Wavebouys and Weather Stations around the globe.

Join Pro

Comparision Forecast

View Surf forecast
   
Sat 07/22 6:04am 2ft 6s 4 7 mph 1007.8mb 64f 65f
5:04am 2ft 8s 7 7 mph 1007.9mb 64f 65f
4:04am 2ft 6s 9 11 mph 1007.5mb 64f 66f
3:04am 2ft 4s 9 11 mph 1006.6mb 64f 66f
2:04am 2ft 4s 11 13 mph 1006.4mb 64f 67f
1:04am 2.5ft 6s 9 11 mph 1006.5mb 63f 66f
12:04am 2ft 3s 13 16 mph 1006.1mb 64f 67f
Fri 07/21 11:04pm 2.5ft 6s 11 11 mph 1006.3mb 64f 66f
10:04pm 3ft 11s 13 13 mph 1006.3mb 61f 66f
9:04pm 2.5ft 6s 16 18 mph 1006.2mb 64f 67f
8:04pm 3ft 11s 11 13 mph 1006.3mb 65f 67f
7:04pm 2.5ft 11s 11 13 mph 1006.4mb 65f 68f
6:04pm 1.6ft 6s 11 11 mph 1006.4mb 66f 68f
5:04pm 1.6ft 6s 9 11 mph 1006.3mb 66f 69f
4:04pm 1.6ft 6s  -  mph 1006.9mb 67f 69f
2:04pm 1.6ft 8s 7 7 mph 1007.5mb 65f 69f
1:04pm 1.6ft 8s 7 7 mph 1008mb 65f 68f
11:04am 2ft 11s 4 7 mph 1008.5mb 64f 65f
10:04am 1.3ft 4s 4 7 mph 1008.1mb 64f 65f
9:04am 1.6ft 5s 7 7 mph 1007.8mb 64f 65f
8:04am 1.6ft 5s 9 9 mph 1007.9mb 63f 65f
7:04am 1.6ft 5s 7 9 mph 1007.7mb 63f 65f
6:04am 1.6ft 6s 4 7 mph 1007.6mb 64f 65f
5:04am 1.3ft 6s 4 4 mph 1007.5mb 63f 65f
4:04am 1.3ft 6s 7 7 mph 1007.2mb 63f 64f
3:04am 1.3ft 6s 7 7 mph 1007.4mb 63f 65f
2:04am 1.3ft 6s 7 9 mph 1008mb 64f 66f
1:04am 1.3ft 8s 7 9 mph 1008.3mb 64f 65f
12:04am 1.3ft 6s 7 7 mph 1008.2mb 64f 65f
Thu 07/20 10:04pm 1.6ft 6s 11 13 mph 1008.4mb 63f 65f
9:04pm 2ft 6s 9 11 mph 1008.8mb 62f 65f
8:04pm 2.5ft 11s 11 11 mph 1008.9mb 64f 65f
7:04pm 1.6ft 5s 9 11 mph 1009.3mb 64f 65f
6:04pm 2.5ft 11s 9 9 mph 1009.8mb 64f 66f
4:04pm 1.6ft 6s 9 9 mph 1010.2mb 67f 69f
3:04pm 1.6ft 6s 7 9 mph 1010.7mb 67f 69f
2:04pm 2ft 6s 7 7 mph 1011.1mb 65f 69f
1:04pm 1.6ft 5s 4 4 mph 1011.9mb 65f 69f
12:04pm 2.5ft 5s 4 4 mph 1012.2mb 63f 67f
11:04am 2ft 5s 2 4 mph 1012.1mb 64f 66f
10:04am 2.5ft 5s 2 4 mph 1012.5mb 63f 65f
9:04am 2.5ft 5s 4 7 mph 1012.4mb 63f 64f
8:04am 2.5ft 5s 4 4 mph 1012.1mb 62f 64f
6:04am 2ft 5s 4 4 mph 1011.8mb 62f 62f
5:04am 2ft 5s 13 16 mph 1011.3mb 62f 63f
4:04am 1.6ft 5s 4 7 mph 1011.4mb 62f 63f
3:04am 1.6ft 6s 4 7 mph 1011.5mb 62f 63f
2:04am 2ft 6s 7 7 mph 1011.4mb 62f 63f
1:04am 2ft 6s 7 13 mph 1012.1mb 62f 63f
12:04am 2ft 6s 9 11 mph 1012.5mb 61f 64f
Wed 07/19 11:04pm 2.5ft 6s 11 11 mph 1012.4mb 62f 64f
10:04pm 2.5ft 8s 11 13 mph 1012.6mb 62f 64f
9:04pm 2.5ft 8s 11 13 mph 1012.5mb 63f 64f
8:04pm 2.5ft 6s 11 13 mph 1012.5mb 63f 65f
7:04pm 2ft 6s 9 9 mph 1012.6mb 64f 65f
6:04pm 2.5ft 6s 9 11 mph 1012.7mb 64f 65f
5:04pm 2ft 6s 9 9 mph 1012.9mb 64f 65f
4:04pm 2ft 6s 9 9 mph 1013.5mb 64f 65f
3:04pm 1.6ft 8s 7 7 mph 1014mb 63f 65f
2:04pm 2ft 8s 4 4 mph 1014.3mb 63f 65f
1:04pm 2ft 8s 4 4 mph 1014.7mb 62f 65f
12:04pm 2.5ft 6s 7 9 mph 1015.4mb 62f 64f
11:04am 1ft 4s 4 7 mph 1015.6mb 62f 63f